sensor_id;sensor_type;location;lat;lon;timestamp;pressure;altitude;pressure_sealevel;temperature;humidity
50368;BME280;36281;34.132;-118.018;2023-11-19T00:00:55;100201.56;;;19.93;80.00
50368;BME280;36281;34.132;-118.018;2023-11-19T00:03:24;100207.22;;;19.91;80.79
50368;BME280;36281;34.132;-118.018;2023-11-19T00:05:53;100218.22;;;19.90;81.07
50368;BME280;36281;34.132;-118.018;2023-11-19T00:08:22;100220.13;;;19.89;80.94
50368;BME280;36281;34.132;-118.018;2023-11-19T00:10:53;100226.00;;;19.86;81.46
50368;BME280;36281;34.132;-118.018;2023-11-19T00:13:22;100226.00;;;19.81;80.79
50368;BME280;36281;34.132;-118.018;2023-11-19T00:15:53;100228.69;;;19.81;80.41
50368;BME280;36281;34.132;-118.018;2023-11-19T00:18:22;100236.44;;;19.77;80.13
50368;BME280;36281;34.132;-118.018;2023-11-19T00:20:51;100230.28;;;19.77;80.35
50368;BME280;36281;34.132;-118.018;2023-11-19T00:23:20;100224.59;;;19.73;80.07
50368;BME280;36281;34.132;-118.018;2023-11-19T00:25:49;100229.97;;;19.73;80.80
50368;BME280;36281;34.132;-118.018;2023-11-19T00:28:18;100229.44;;;19.71;81.96
50368;BME280;36281;34.132;-118.018;2023-11-19T00:30:47;100134.34;;;19.09;82.84
50368;BME280;36281;34.132;-118.018;2023-11-19T00:33:22;100229.69;;;19.65;83.54
50368;BME280;36281;34.132;-118.018;2023-11-19T00:35:52;100177.91;;;19.22;85.29
50368;BME280;36281;34.132;-118.018;2023-11-19T00:38:23;100252.16;;;19.53;85.27
50368;BME280;36281;34.132;-118.018;2023-11-19T00:41:01;100248.34;;;19.44;86.90
50368;BME280;36281;34.132;-118.018;2023-11-19T00:43:33;100198.50;;;19.11;87.48
50368;BME280;36281;34.132;-118.018;2023-11-19T00:46:08;100250.44;;;19.32;88.62
50368;BME280;36281;34.132;-118.018;2023-11-19T00:48:44;100105.66;;;18.30;88.99
50368;BME280;36281;34.132;-118.018;2023-11-19T00:51:17;100194.59;;;18.87;90.08
50368;BME280;36281;34.132;-118.018;2023-11-19T00:53:51;100260.56;;;19.15;90.55
50368;BME280;36281;34.132;-118.018;2023-11-19T00:56:25;100243.31;;;19.05;91.20
50368;BME280;36281;34.132;-118.018;2023-11-19T00:58:58;100177.22;;;18.62;91.46
50368;BME280;36281;34.132;-118.018;2023-11-19T01:01:30;100226.88;;;18.97;92.40
50368;BME280;36281;34.132;-118.018;2023-11-19T01:04:03;100243.75;;;18.92;93.43
50368;BME280;36281;34.132;-118.018;2023-11-19T01:06:37;100259.28;;;18.85;94.08
50368;BME280;36281;34.132;-118.018;2023-11-19T01:09:16;100275.06;;;18.81;92.96
50368;BME280;36281;34.132;-118.018;2023-11-19T01:11:50;100134.53;;;17.91;91.35
50368;BME280;36281;34.132;-118.018;2023-11-19T01:14:20;100166.56;;;18.08;91.04
50368;BME280;36281;34.132;-118.018;2023-11-19T01:16:50;100152.63;;;18.06;91.28
50368;BME280;36281;34.132;-118.018;2023-11-19T01:19:22;100247.81;;;18.68;91.66
50368;BME280;36281;34.132;-118.018;2023-11-19T01:21:54;100284.44;;;18.79;91.16
50368;BME280;36281;34.132;-118.018;2023-11-19T01:24:32;100147.94;;;17.91;90.70
50368;BME280;36281;34.132;-118.018;2023-11-19T01:27:11;100268.75;;;18.66;90.67
50368;BME280;36281;34.132;-118.018;2023-11-19T01:29:43;100229.28;;;18.34;89.87
50368;BME280;36281;34.132;-118.018;2023-11-19T01:32:14;100279.28;;;18.72;89.89
50368;BME280;36281;34.132;-118.018;2023-11-19T01:34:52;100291.09;;;18.71;89.73
50368;BME280;36281;34.132;-118.018;2023-11-19T01:37:26;100295.38;;;18.72;89.76
50368;BME280;36281;34.132;-118.018;2023-11-19T01:39:59;100298.47;;;18.64;90.61
50368;BME280;36281;34.132;-118.018;2023-11-19T01:42:40;100311.16;;;18.69;90.83
50368;BME280;36281;34.132;-118.018;2023-11-19T01:45:26;100214.81;;;18.08;90.57
50368;BME280;36281;34.132;-118.018;2023-11-19T01:48:02;100193.06;;;17.77;90.64
50368;BME280;36281;34.132;-118.018;2023-11-19T01:50:57;100152.88;;;17.55;90.66
50368;BME280;36281;34.132;-118.018;2023-11-19T01:53:30;100326.06;;;18.59;90.89
50368;BME280;36281;34.132;-118.018;2023-11-19T01:56:03;100339.19;;;18.56;91.48
50368;BME280;36281;34.132;-118.018;2023-11-19T01:58:40;100222.09;;;17.86;91.12
50368;BME280;36281;34.132;-118.018;2023-11-19T02:01:12;100070.50;;;16.75;90.93
50368;BME280;36281;34.132;-118.018;2023-11-19T02:03:44;100293.34;;;18.08;91.28
50368;BME280;36281;34.132;-118.018;2023-11-19T02:06:20;100308.81;;;18.23;91.36
50368;BME280;36281;34.132;-118.018;2023-11-19T02:08:51;100195.78;;;17.61;91.71
50368;BME280;36281;34.132;-118.018;2023-11-19T02:11:22;100356.22;;;18.45;91.97
50368;BME280;36281;34.132;-118.018;2023-11-19T02:13:53;100250.50;;;17.70;91.99
50368;BME280;36281;34.132;-118.018;2023-11-19T02:16:27;100342.53;;;18.41;92.23
50368;BME280;36281;34.132;-118.018;2023-11-19T02:19:00;100328.19;;;18.30;92.75
50368;BME280;36281;34.132;-118.018;2023-11-19T02:21:40;100341.66;;;18.36;93.09
50368;BME280;36281;34.132;-118.018;2023-11-19T02:24:17;100311.31;;;18.08;93.41
50368;BME280;36281;34.132;-118.018;2023-11-19T02:26:51;100344.03;;;18.32;93.89
50368;BME280;36281;34.132;-118.018;2023-11-19T02:29:29;100355.25;;;18.29;94.54
50368;BME280;36281;34.132;-118.018;2023-11-19T02:32:02;100296.84;;;17.87;94.93
50368;BME280;36281;34.132;-118.018;2023-11-19T02:34:35;100356.00;;;18.24;95.16
50368;BME280;36281;34.132;-118.018;2023-11-19T02:37:07;100295.72;;;17.83;95.15
50368;BME280;36281;34.132;-118.018;2023-11-19T02:39:38;100350.09;;;18.22;95.34
50368;BME280;36281;34.132;-118.018;2023-11-19T02:42:10;100323.84;;;18.02;95.81
50368;BME280;36281;34.132;-118.018;2023-11-19T02:44:46;100346.00;;;18.20;95.89
50368;BME280;36281;34.132;-118.018;2023-11-19T02:47:39;100106.16;;;16.64;95.98
50368;BME280;36281;34.132;-118.018;2023-11-19T02:50:13;100273.09;;;17.74;96.31
50368;BME280;36281;34.132;-118.018;2023-11-19T02:52:45;100343.28;;;18.15;96.21
50368;BME280;36281;34.132;-118.018;2023-11-19T02:55:15;100282.75;;;17.75;96.47
50368;BME280;36281;34.132;-118.018;2023-11-19T02:57:48;100145.97;;;16.77;96.63
50368;BME280;36281;34.132;-118.018;2023-11-19T03:00:22;100352.53;;;18.02;97.37
50368;BME280;36281;34.132;-118.018;2023-11-19T03:03:18;100368.53;;;17.97;98.07
50368;BME280;36281;34.132;-118.018;2023-11-19T03:05:55;100223.41;;;17.05;98.02
50368;BME280;36281;34.132;-118.018;2023-11-19T03:08:28;100351.56;;;17.91;98.20
50368;BME280;36281;34.132;-118.018;2023-11-19T03:11:00;100345.34;;;17.69;97.99
50368;BME280;36281;34.132;-118.018;2023-11-19T03:13:43;100351.50;;;17.69;97.85
50368;BME280;36281;34.132;-118.018;2023-11-19T03:16:15;100288.44;;;17.23;97.60
50368;BME280;36281;34.132;-118.018;2023-11-19T03:18:49;100251.75;;;17.01;97.72
50368;BME280;36281;34.132;-118.018;2023-11-19T03:21:20;100316.19;;;17.34;97.67
50368;BME280;36281;34.132;-118.018;2023-11-19T03:23:56;100286.75;;;17.17;97.96
50368;BME280;36281;34.132;-118.018;2023-11-19T03:26:29;100374.31;;;17.72;98.02
50368;BME280;36281;34.132;-118.018;2023-11-19T03:29:00;100314.75;;;17.26;98.17
50368;BME280;36281;34.132;-118.018;2023-11-19T03:31:41;100403.13;;;17.65;98.37
50368;BME280;36281;34.132;-118.018;2023-11-19T03:34:12;100392.94;;;17.62;98.75
50368;BME280;36281;34.132;-118.018;2023-11-19T03:36:45;100396.34;;;17.57;99.40
50368;BME280;36281;34.132;-118.018;2023-11-19T03:39:17;100324.63;;;17.09;99.48
50368;BME280;36281;34.132;-118.018;2023-11-19T03:41:59;100404.28;;;17.52;100.00
50368;BME280;36281;34.132;-118.018;2023-11-19T03:44:30;100360.81;;;17.28;100.00
50368;BME280;36281;34.132;-118.018;2023-11-19T03:47:03;100385.47;;;17.47;100.00
50368;BME280;36281;34.132;-118.018;2023-11-19T03:49:39;100362.41;;;17.29;100.00
50368;BME280;36281;34.132;-118.018;2023-11-19T03:52:09;100340.94;;;17.07;100.00
50368;BME280;36281;34.132;-118.018;2023-11-19T03:54:47;100326.97;;;16.88;100.00
50368;BME280;36281;34.132;-118.018;2023-11-19T03:57:18;100401.03;;;17.33;100.00
50368;BME280;36281;34.132;-118.018;2023-11-19T03:59:51;100400.97;;;17.28;100.00
50368;BME280;36281;34.132;-118.018;2023-11-19T04:02:31;100304.34;;;16.50;100.00
50368;BME280;36281;34.132;-118.018;2023-11-19T04:05:16;100409.38;;;17.20;100.00
50368;BME280;36281;34.132;-118.018;2023-11-19T04:07:48;100391.91;;;17.00;100.00
50368;BME280;36281;34.132;-118.018;2023-11-19T04:10:34;100416.75;;;17.13;100.00
50368;BME280;36281;34.132;-118.018;2023-11-19T04:13:08;100229.47;;;15.76;100.00
50368;BME280;36281;34.132;-118.018;2023-11-19T04:15:45;100409.28;;;16.98;100.00
50368;BME280;36281;34.132;-118.018;2023-11-19T04:18:17;100425.78;;;16.95;100.00
50368;BME280;36281;34.132;-118.018;2023-11-19T04:20:48;100409.25;;;16.81;100.00
50368;BME280;36281;34.132;-118.018;2023-11-19T04:23:19;100297.88;;;16.06;100.00
50368;BME280;36281;34.132;-118.018;2023-11-19T04:25:49;100428.88;;;16.87;100.00
50368;BME280;36281;34.132;-118.018;2023-11-19T04:28:20;100420.94;;;16.92;100.00
50368;BME280;36281;34.132;-118.018;2023-11-19T04:30:50;100417.69;;;16.90;100.00
50368;BME280;36281;34.132;-118.018;2023-11-19T04:33:22;100418.41;;;16.85;100.00
50368;BME280;36281;34.132;-118.018;2023-11-19T04:35:54;100265.66;;;15.84;100.00
50368;BME280;36281;34.132;-118.018;2023-11-19T04:38:26;100426.91;;;16.82;100.00
50368;BME280;36281;34.132;-118.018;2023-11-19T04:41:00;100428.19;;;16.79;100.00
50368;BME280;36281;34.132;-118.018;2023-11-19T04:43:31;100251.31;;;15.38;100.00
50368;BME280;36281;34.132;-118.018;2023-11-19T04:46:05;100439.28;;;16.71;100.00
50368;BME280;36281;34.132;-118.018;2023-11-19T04:48:38;100384.28;;;16.23;100.00
50368;BME280;36281;34.132;-118.018;2023-11-19T04:51:09;100453.91;;;16.69;100.00
50368;BME280;36281;34.132;-118.018;2023-11-19T04:53:42;100325.13;;;15.80;100.00
50368;BME280;36281;34.132;-118.018;2023-11-19T04:56:16;100310.50;;;15.70;100.00
50368;BME280;36281;34.132;-118.018;2023-11-19T04:58:50;100359.13;;;15.96;100.00
50368;BME280;36281;34.132;-118.018;2023-11-19T05:01:22;100441.72;;;16.61;100.00
50368;BME280;36281;34.132;-118.018;2023-11-19T05:03:55;100413.75;;;16.40;100.00
50368;BME280;36281;34.132;-118.018;2023-11-19T05:06:32;100462.28;;;16.61;100.00
50368;BME280;36281;34.132;-118.018;2023-11-19T05:09:04;100434.13;;;16.41;100.00
50368;BME280;36281;34.132;-118.018;2023-11-19T05:11:36;100322.34;;;15.63;100.00
50368;BME280;36281;34.132;-118.018;2023-11-19T05:14:11;100185.13;;;14.88;100.00
50368;BME280;36281;34.132;-118.018;2023-11-19T05:16:43;100491.69;;;16.61;100.00
50368;BME280;36281;34.132;-118.018;2023-11-19T05:19:17;100293.31;;;15.31;100.00
50368;BME280;36281;34.132;-118.018;2023-11-19T05:21:51;100485.78;;;16.59;100.00
50368;BME280;36281;34.132;-118.018;2023-11-19T05:24:21;100398.84;;;16.04;100.00
50368;BME280;36281;34.132;-118.018;2023-11-19T05:26:54;100521.81;;;16.68;100.00
50368;BME280;36281;34.132;-118.018;2023-11-19T05:29:27;100464.19;;;16.48;100.00
50368;BME280;36281;34.132;-118.018;2023-11-19T05:31:58;100351.59;;;15.81;100.00
50368;BME280;36281;34.132;-118.018;2023-11-19T05:34:31;100478.34;;;16.61;100.00
50368;BME280;36281;34.132;-118.018;2023-11-19T05:37:03;100489.63;;;16.74;100.00
50368;BME280;36281;34.132;-118.018;2023-11-19T05:39:40;100455.81;;;16.57;100.00
50368;BME280;36281;34.132;-118.018;2023-11-19T05:42:12;100469.38;;;16.78;100.00
50368;BME280;36281;34.132;-118.018;2023-11-19T05:44:45;100350.50;;;16.06;100.00
50368;BME280;36281;34.132;-118.018;2023-11-19T05:47:17;100382.88;;;16.33;100.00
50368;BME280;36281;34.132;-118.018;2023-11-19T05:49:53;100287.75;;;15.68;100.00
50368;BME280;36281;34.132;-118.018;2023-11-19T05:52:23;100397.41;;;16.37;100.00
50368;BME280;36281;34.132;-118.018;2023-11-19T05:54:54;100357.09;;;16.15;100.00
50368;BME280;36281;34.132;-118.018;2023-11-19T05:57:26;100433.00;;;16.54;100.00
50368;BME280;36281;34.132;-118.018;2023-11-19T05:59:59;100371.03;;;16.28;100.00
50368;BME280;36281;34.132;-118.018;2023-11-19T06:02:35;100448.69;;;16.74;100.00
50368;BME280;36281;34.132;-118.018;2023-11-19T06:05:11;100397.00;;;16.45;100.00
50368;BME280;36281;34.132;-118.018;2023-11-19T06:07:51;100406.53;;;16.52;100.00
50368;BME280;36281;34.132;-118.018;2023-11-19T06:10:21;100418.94;;;16.59;100.00
50368;BME280;36281;34.132;-118.018;2023-11-19T06:12:52;100443.44;;;16.79;100.00
50368;BME280;36281;34.132;-118.018;2023-11-19T06:15:28;100440.66;;;16.74;100.00
50368;BME280;36281;34.132;-118.018;2023-11-19T06:17:58;100460.44;;;16.73;100.00
50368;BME280;36281;34.132;-118.018;2023-11-19T06:20:44;100448.69;;;16.74;100.00
50368;BME280;36281;34.132;-118.018;2023-11-19T06:23:14;100451.09;;;16.75;100.00
50368;BME280;36281;34.132;-118.018;2023-11-19T06:25:47;100456.94;;;16.72;100.00
50368;BME280;36281;34.132;-118.018;2023-11-19T06:28:18;100454.28;;;16.72;100.00
50368;BME280;36281;34.132;-118.018;2023-11-19T06:30:48;100458.56;;;16.73;100.00
50368;BME280;36281;34.132;-118.018;2023-11-19T06:33:22;100419.09;;;16.40;100.00
50368;BME280;36281;34.132;-118.018;2023-11-19T06:35:55;100401.59;;;16.33;100.00
50368;BME280;36281;34.132;-118.018;2023-11-19T06:38:27;100456.81;;;16.79;100.00
50368;BME280;36281;34.132;-118.018;2023-11-19T06:40:58;100385.16;;;16.41;100.00
50368;BME280;36281;34.132;-118.018;2023-11-19T06:43:28;100404.31;;;16.49;100.00
50368;BME280;36281;34.132;-118.018;2023-11-19T06:46:24;100451.00;;;16.82;100.00
50368;BME280;36281;34.132;-118.018;2023-11-19T06:49:01;100434.13;;;16.70;100.00
50368;BME280;36281;34.132;-118.018;2023-11-19T06:51:41;100375.34;;;16.18;100.00
50368;BME280;36281;34.132;-118.018;2023-11-19T06:54:12;100455.28;;;16.83;100.00
50368;BME280;36281;34.132;-118.018;2023-11-19T06:56:43;100405.16;;;16.38;100.00
50368;BME280;36281;34.132;-118.018;2023-11-19T06:59:15;100466.34;;;16.87;100.00
50368;BME280;36281;34.132;-118.018;2023-11-19T07:01:46;100375.56;;;16.28;100.00
50368;BME280;36281;34.132;-118.018;2023-11-19T07:04:17;100273.81;;;15.66;100.00
50368;BME280;36281;34.132;-118.018;2023-11-19T07:06:50;100445.75;;;16.87;100.00
50368;BME280;36281;34.132;-118.018;2023-11-19T07:09:23;100215.22;;;15.36;100.00
50368;BME280;36281;34.132;-118.018;2023-11-19T07:11:56;100462.69;;;16.93;100.00
50368;BME280;36281;34.132;-118.018;2023-11-19T07:14:39;100360.38;;;16.17;100.00
50368;BME280;36281;34.132;-118.018;2023-11-19T07:17:11;100417.22;;;16.52;100.00
50368;BME280;36281;34.132;-118.018;2023-11-19T07:19:42;100485.47;;;16.95;100.00
50368;BME280;36281;34.132;-118.018;2023-11-19T07:22:22;100479.09;;;16.96;100.00
50368;BME280;36281;34.132;-118.018;2023-11-19T07:25:03;100475.34;;;16.97;100.00
50368;BME280;36281;34.132;-118.018;2023-11-19T07:27:32;100470.00;;;16.97;100.00
50368;BME280;36281;34.132;-118.018;2023-11-19T07:30:01;100460.81;;;16.93;100.00
50368;BME280;36281;34.132;-118.018;2023-11-19T07:32:30;100471.06;;;16.96;100.00
50368;BME280;36281;34.132;-118.018;2023-11-19T07:34:59;100461.28;;;16.90;100.00
50368;BME280;36281;34.132;-118.018;2023-11-19T07:37:29;100472.94;;;16.96;100.00
50368;BME280;36281;34.132;-118.018;2023-11-19T07:39:59;100474.22;;;16.93;100.00
50368;BME280;36281;34.132;-118.018;2023-11-19T07:42:28;100478.03;;;16.97;100.00
50368;BME280;36281;34.132;-118.018;2023-11-19T07:44:57;100474.75;;;16.95;100.00
50368;BME280;36281;34.132;-118.018;2023-11-19T07:47:26;100471.63;;;16.98;100.00
50368;BME280;36281;34.132;-118.018;2023-11-19T07:49:57;100477.53;;;17.00;100.00
50368;BME280;36281;34.132;-118.018;2023-11-19T07:52:26;100484.75;;;17.00;100.00
50368;BME280;36281;34.132;-118.018;2023-11-19T07:54:57;100476.72;;;17.00;100.00
50368;BME280;36281;34.132;-118.018;2023-11-19T07:57:26;100468.13;;;16.98;100.00
50368;BME280;36281;34.132;-118.018;2023-11-19T07:59:58;100478.03;;;16.97;100.00
50368;BME280;36281;34.132;-118.018;2023-11-19T08:02:28;100475.81;;;16.94;100.00
50368;BME280;36281;34.132;-118.018;2023-11-19T08:04:58;100488.63;;;16.92;100.00
50368;BME280;36281;34.132;-118.018;2023-11-19T08:07:27;100494.81;;;16.93;100.00
50368;BME280;36281;34.132;-118.018;2023-11-19T08:09:57;100498.28;;;16.93;100.00
50368;BME280;36281;34.132;-118.018;2023-11-19T08:12:27;100502.38;;;16.96;100.00
50368;BME280;36281;34.132;-118.018;2023-11-19T08:14:56;100498.84;;;16.95;100.00
50368;BME280;36281;34.132;-118.018;2023-11-19T08:17:26;100503.16;;;16.96;100.00
50368;BME280;36281;34.132;-118.018;2023-11-19T08:19:56;100493.31;;;16.85;100.00
50368;BME280;36281;34.132;-118.018;2023-11-19T08:22:25;100500.16;;;16.93;100.00
50368;BME280;36281;34.132;-118.018;2023-11-19T08:24:54;100504.69;;;16.92;100.00
50368;BME280;36281;34.132;-118.018;2023-11-19T08:27:25;100514.69;;;16.85;100.00
50368;BME280;36281;34.132;-118.018;2023-11-19T08:29:55;100508.78;;;16.83;100.00
50368;BME280;36281;34.132;-118.018;2023-11-19T08:32:27;100509.34;;;16.85;100.00
50368;BME280;36281;34.132;-118.018;2023-11-19T08:34:56;100512.53;;;16.82;100.00
50368;BME280;36281;34.132;-118.018;2023-11-19T08:37:25;100503.09;;;16.79;100.00
50368;BME280;36281;34.132;-118.018;2023-11-19T08:39:55;100496.94;;;16.79;100.00
50368;BME280;36281;34.132;-118.018;2023-11-19T08:42:26;100498.09;;;16.83;100.00
50368;BME280;36281;34.132;-118.018;2023-11-19T08:44:56;100479.72;;;16.75;100.00
50368;BME280;36281;34.132;-118.018;2023-11-19T08:47:33;100479.25;;;16.78;100.00
50368;BME280;36281;34.132;-118.018;2023-11-19T08:50:04;100473.91;;;16.78;100.00
50368;BME280;36281;34.132;-118.018;2023-11-19T08:52:33;100481.94;;;16.78;100.00
50368;BME280;36281;34.132;-118.018;2023-11-19T08:55:03;100495.31;;;16.78;100.00
50368;BME280;36281;34.132;-118.018;2023-11-19T08:57:39;100491.59;;;16.67;100.00
50368;BME280;36281;34.132;-118.018;2023-11-19T09:00:09;100488.00;;;16.62;100.00
50368;BME280;36281;34.132;-118.018;2023-11-19T09:02:40;100514.38;;;16.70;100.00
50368;BME280;36281;34.132;-118.018;2023-11-19T09:05:12;100506.81;;;16.67;100.00
50368;BME280;36281;34.132;-118.018;2023-11-19T09:07:45;100488.00;;;16.50;100.00
50368;BME280;36281;34.132;-118.018;2023-11-19T09:10:15;100501.84;;;16.59;100.00
50368;BME280;36281;34.132;-118.018;2023-11-19T09:12:46;100498.00;;;16.54;100.00
50368;BME280;36281;34.132;-118.018;2023-11-19T09:15:16;100474.00;;;16.31;100.00
50368;BME280;36281;34.132;-118.018;2023-11-19T09:17:48;100503.84;;;16.40;100.00
50368;BME280;36281;34.132;-118.018;2023-11-19T09:20:25;100519.31;;;16.38;100.00
50368;BME280;36281;34.132;-118.018;2023-11-19T09:22:57;100462.84;;;15.99;100.00
50368;BME280;36281;34.132;-118.018;2023-11-19T09:25:27;100501.75;;;16.30;100.00
50368;BME280;36281;34.132;-118.018;2023-11-19T09:28:13;100503.50;;;16.36;100.00
50368;BME280;36281;34.132;-118.018;2023-11-19T09:30:43;100441.69;;;15.86;100.00
50368;BME280;36281;34.132;-118.018;2023-11-19T09:33:13;100470.97;;;16.04;100.00
50368;BME280;36281;34.132;-118.018;2023-11-19T09:35:43;100517.44;;;16.38;100.00
50368;BME280;36281;34.132;-118.018;2023-11-19T09:38:23;100430.47;;;15.72;100.00
50368;BME280;36281;34.132;-118.018;2023-11-19T09:40:53;100375.50;;;15.52;100.00
50368;BME280;36281;34.132;-118.018;2023-11-19T09:43:31;100482.13;;;16.13;100.00
50368;BME280;36281;34.132;-118.018;2023-11-19T09:46:08;100533.72;;;16.37;100.00
50368;BME280;36281;34.132;-118.018;2023-11-19T09:48:42;100320.91;;;15.02;100.00
50368;BME280;36281;34.132;-118.018;2023-11-19T09:51:16;100414.03;;;15.57;100.00
50368;BME280;36281;34.132;-118.018;2023-11-19T09:53:57;100536.16;;;16.38;100.00
50368;BME280;36281;34.132;-118.018;2023-11-19T09:56:30;100524.63;;;16.26;100.00
50368;BME280;36281;34.132;-118.018;2023-11-19T09:59:06;100535.69;;;16.41;100.00
50368;BME280;36281;34.132;-118.018;2023-11-19T10:01:38;100526.63;;;16.42;100.00
50368;BME280;36281;34.132;-118.018;2023-11-19T10:04:12;100494.31;;;16.20;100.00
50368;BME280;36281;34.132;-118.018;2023-11-19T10:06:46;100445.06;;;16.05;100.00
50368;BME280;36281;34.132;-118.018;2023-11-19T10:09:17;100505.44;;;16.41;100.00
50368;BME280;36281;34.132;-118.018;2023-11-19T10:11:51;100490.72;;;16.26;100.00
50368;BME280;36281;34.132;-118.018;2023-11-19T10:14:28;100514.19;;;16.36;100.00
50368;BME280;36281;34.132;-118.018;2023-11-19T10:17:01;100515.81;;;16.37;100.00
50368;BME280;36281;34.132;-118.018;2023-11-19T10:19:33;100443.31;;;15.75;100.00
50368;BME280;36281;34.132;-118.018;2023-11-19T10:22:05;100474.81;;;15.96;100.00
50368;BME280;36281;34.132;-118.018;2023-11-19T10:24:37;100390.09;;;15.38;100.00
50368;BME280;36281;34.132;-118.018;2023-11-19T10:27:17;100444.94;;;15.76;100.00
50368;BME280;36281;34.132;-118.018;2023-11-19T10:29:52;100507.91;;;16.19;100.00
50368;BME280;36281;34.132;-118.018;2023-11-19T10:32:29;100361.75;;;15.25;100.00
50368;BME280;36281;34.132;-118.018;2023-11-19T10:35:07;100504.91;;;16.03;100.00
50368;BME280;36281;34.132;-118.018;2023-11-19T10:37:37;100466.56;;;15.74;100.00
50368;BME280;36281;34.132;-118.018;2023-11-19T10:40:11;100386.84;;;15.36;100.00
50368;BME280;36281;34.132;-118.018;2023-11-19T10:42:43;100490.38;;;15.88;100.00
50368;BME280;36281;34.132;-118.018;2023-11-19T10:45:28;100419.81;;;15.42;100.00
50368;BME280;36281;34.132;-118.018;2023-11-19T10:47:59;100508.94;;;15.83;100.00
50368;BME280;36281;34.132;-118.018;2023-11-19T10:50:29;100442.31;;;15.34;100.00
50368;BME280;36281;34.132;-118.018;2023-11-19T10:53:00;100293.00;;;14.32;100.00
50368;BME280;36281;34.132;-118.018;2023-11-19T10:55:35;100434.41;;;15.28;100.00
50368;BME280;36281;34.132;-118.018;2023-11-19T10:58:09;100385.38;;;14.98;100.00
50368;BME280;36281;34.132;-118.018;2023-11-19T11:00:44;100364.91;;;14.81;100.00
50368;BME280;36281;34.132;-118.018;2023-11-19T11:03:18;100450.19;;;15.29;100.00
50368;BME280;36281;34.132;-118.018;2023-11-19T11:05:49;100500.94;;;15.83;100.00
50368;BME280;36281;34.132;-118.018;2023-11-19T11:08:20;100419.59;;;15.32;100.00
50368;BME280;36281;34.132;-118.018;2023-11-19T11:10:54;100487.22;;;15.79;100.00
50368;BME280;36281;34.132;-118.018;2023-11-19T11:13:26;100416.28;;;15.18;100.00
50368;BME280;36281;34.132;-118.018;2023-11-19T11:16:08;100420.72;;;15.24;100.00
50368;BME280;36281;34.132;-118.018;2023-11-19T11:18:42;100413.75;;;15.23;100.00
50368;BME280;36281;34.132;-118.018;2023-11-19T11:21:20;100402.34;;;15.16;100.00
50368;BME280;36281;34.132;-118.018;2023-11-19T11:24:18;100413.16;;;15.21;100.00
50368;BME280;36281;34.132;-118.018;2023-11-19T11:30:17;100308.63;;;14.59;100.00
50368;BME280;36281;34.132;-118.018;2023-11-19T11:33:05;100286.66;;;14.45;100.00
50368;BME280;36281;34.132;-118.018;2023-11-19T11:35:47;100308.56;;;14.47;100.00
50368;BME280;36281;34.132;-118.018;2023-11-19T11:38:22;100480.31;;;15.48;100.00
50368;BME280;36281;34.132;-118.018;2023-11-19T11:41:18;100475.19;;;15.46;100.00
50368;BME280;36281;34.132;-118.018;2023-11-19T11:43:56;100472.84;;;15.38;100.00
50368;BME280;36281;34.132;-118.018;2023-11-19T11:47:01;100463.09;;;15.32;100.00
50368;BME280;36281;34.132;-118.018;2023-11-19T11:49:41;100467.13;;;15.23;100.00
50368;BME280;36281;34.132;-118.018;2023-11-19T11:52:13;100450.72;;;15.08;100.00
50368;BME280;36281;34.132;-118.018;2023-11-19T11:54:45;100378.50;;;14.61;100.00
50368;BME280;36281;34.132;-118.018;2023-11-19T11:57:17;100363.00;;;14.39;100.00
50368;BME280;36281;34.132;-118.018;2023-11-19T11:59:49;100459.25;;;14.98;100.00
50368;BME280;36281;34.132;-118.018;2023-11-19T12:02:24;100413.78;;;14.63;100.00
50368;BME280;36281;34.132;-118.018;2023-11-19T12:05:02;100451.19;;;14.86;100.00
50368;BME280;36281;34.132;-118.018;2023-11-19T12:07:34;100366.69;;;14.38;100.00
50368;BME280;36281;34.132;-118.018;2023-11-19T12:10:08;100496.50;;;15.05;100.00
50368;BME280;36281;34.132;-118.018;2023-11-19T12:12:41;100380.47;;;14.54;100.00
50368;BME280;36281;34.132;-118.018;2023-11-19T12:15:12;100382.97;;;14.67;100.00
50368;BME280;36281;34.132;-118.018;2023-11-19T12:17:50;100251.38;;;14.01;100.00
50368;BME280;36281;34.132;-118.018;2023-11-19T12:20:25;100298.53;;;14.31;100.00
50368;BME280;36281;34.132;-118.018;2023-11-19T12:23:05;100373.59;;;14.76;100.00
50368;BME280;36281;34.132;-118.018;2023-11-19T12:25:37;100448.31;;;15.18;100.00
50368;BME280;36281;34.132;-118.018;2023-11-19T12:28:13;100435.28;;;15.10;100.00
50368;BME280;36281;34.132;-118.018;2023-11-19T12:30:46;100468.47;;;15.14;100.00
50368;BME280;36281;34.132;-118.018;2023-11-19T12:33:23;100451.06;;;15.11;100.00
50368;BME280;36281;34.132;-118.018;2023-11-19T12:35:58;100290.13;;;13.97;100.00
50368;BME280;36281;34.132;-118.018;2023-11-19T12:38:34;100449.97;;;15.00;100.00
50368;BME280;36281;34.132;-118.018;2023-11-19T12:41:07;100453.31;;;14.96;100.00
50368;BME280;36281;34.132;-118.018;2023-11-19T12:43:38;100424.25;;;14.76;100.00
50368;BME280;36281;34.132;-118.018;2023-11-19T12:46:21;100426.34;;;14.74;100.00
50368;BME280;36281;34.132;-118.018;2023-11-19T12:48:54;100265.81;;;13.57;100.00